createdAt,value
2019-01-19T00:00:32.896Z,24.77
2019-01-19T00:03:10.454Z,25.63
2019-01-19T00:05:50.740Z,23.03
2019-01-19T00:08:25.193Z,31.37
2019-01-19T00:11:14.054Z,26.10
2019-01-19T00:13:54.487Z,28.03
2019-01-19T00:16:26.203Z,28.80
2019-01-19T00:19:31.318Z,28.20
2019-01-19T00:22:24.267Z,23.93
2019-01-19T00:24:58.805Z,26.40
2019-01-19T00:27:33.073Z,23.23
2019-01-19T00:30:33.941Z,31.33
2019-01-19T00:33:05.673Z,23.50
2019-01-19T00:35:52.558Z,24.40
2019-01-19T00:38:36.239Z,29.90
2019-01-19T00:41:16.951Z,26.90
2019-01-19T00:43:46.501Z,24.50
2019-01-19T00:46:20.958Z,25.80
2019-01-19T00:48:52.714Z,25.37
2019-01-19T00:51:24.450Z,30.00
2019-01-19T00:54:02.132Z,25.30
2019-01-19T00:56:33.852Z,24.50
2019-01-19T00:59:05.386Z,23.50
2019-01-19T01:01:42.914Z,25.23
2019-01-19T01:04:32.269Z,28.47
2019-01-19T01:07:09.004Z,23.80
2019-01-19T01:09:55.719Z,28.17
2019-01-19T01:12:42.308Z,25.03
2019-01-19T01:15:34.613Z,25.67
2019-01-19T01:18:06.366Z,24.00
2019-01-19T01:20:47.071Z,26.87
2019-01-19T01:23:42.850Z,25.43
2019-01-19T01:26:30.751Z,23.83
2019-01-19T01:29:20.579Z,25.40
2019-01-19T01:32:16.457Z,24.83
2019-01-19T01:35:03.538Z,29.83
2019-01-19T01:37:37.751Z,34.80
2019-01-19T01:40:12.310Z,35.10
2019-01-19T01:42:55.606Z,31.77
2019-01-19T01:45:32.916Z,30.63
2019-01-19T01:48:25.699Z,27.17
2019-01-19T01:51:13.700Z,25.70
2019-01-19T01:54:07.963Z,22.37
2019-01-19T01:56:36.415Z,25.53
2019-01-19T01:59:20.070Z,25.20
2019-01-19T02:02:15.880Z,21.50
2019-01-19T02:05:07.964Z,28.80
2019-01-19T02:08:01.511Z,19.33
2019-01-19T02:10:38.720Z,22.50
2019-01-19T02:13:25.399Z,19.37
2019-01-19T02:16:05.759Z,22.00
2019-01-19T02:18:57.008Z,22.23
2019-01-19T02:21:53.216Z,23.03
2019-01-19T02:24:51.951Z,22.70
2019-01-19T02:27:35.751Z,21.40
2019-01-19T02:30:32.902Z,24.50
2019-01-19T02:33:10.364Z,24.47
2019-01-19T02:35:48.599Z,22.47
2019-01-19T02:38:24.182Z,20.07
2019-01-19T02:40:58.616Z,21.93
2019-01-19T02:43:54.316Z,25.20
2019-01-19T02:46:28.791Z,20.50
2019-01-19T02:49:09.155Z,23.13
2019-01-19T02:52:14.122Z,18.60
2019-01-19T02:55:02.123Z,20.07
2019-01-19T02:58:01.913Z,21.30
2019-01-19T03:00:42.456Z,23.60
2019-01-19T03:03:41.414Z,19.00
2019-01-19T03:06:21.989Z,22.60
2019-01-19T03:09:05.929Z,19.13
2019-01-19T03:11:37.684Z,20.03
2019-01-19T03:14:18.356Z,19.60
2019-01-19T03:16:52.632Z,18.53
2019-01-19T03:19:41.006Z,18.27
2019-01-19T03:22:31.022Z,15.70
2019-01-19T03:25:24.126Z,23.43
2019-01-19T03:28:01.891Z,17.80
2019-01-19T03:31:00.569Z,15.63
2019-01-19T03:33:34.569Z,23.77
2019-01-19T03:36:10.085Z,20.03
2019-01-19T03:39:03.329Z,18.37
2019-01-19T03:41:35.537Z,14.30
2019-01-19T03:44:27.672Z,15.93
2019-01-19T03:47:11.164Z,15.83
2019-01-19T03:49:52.027Z,15.40
2019-01-19T03:52:26.715Z,13.43
2019-01-19T03:55:28.747Z,12.40
2019-01-19T03:58:20.762Z,23.60
2019-01-19T04:01:01.298Z,14.20
2019-01-19T04:03:58.223Z,15.53
2019-01-19T04:06:32.766Z,12.47
2019-01-19T04:09:20.696Z,14.73
2019-01-19T04:12:11.807Z,12.10
2019-01-19T04:15:01.637Z,13.70
2019-01-19T04:17:36.389Z,12.23
2019-01-19T04:20:26.168Z,12.50
2019-01-19T04:22:55.808Z,12.50
2019-01-19T04:25:27.556Z,12.00
2019-01-19T04:27:58.404Z,11.17
2019-01-19T04:30:27.109Z,13.37
2019-01-19T04:32:55.511Z,11.50
2019-01-19T04:35:24.272Z,14.60
2019-01-19T04:37:53.039Z,10.50
2019-01-19T04:40:21.519Z,12.07
2019-01-19T04:42:50.395Z,10.80
2019-01-19T04:45:19.072Z,10.87
2019-01-19T04:47:47.752Z,10.37
2019-01-19T04:50:16.557Z,12.10
2019-01-19T04:52:45.240Z,14.77
2019-01-19T04:55:13.750Z,11.80
2019-01-19T04:57:42.447Z,13.63
2019-01-19T05:00:17.873Z,11.87
2019-01-19T05:02:46.914Z,13.03
2019-01-19T05:05:15.738Z,12.93
2019-01-19T05:07:44.448Z,17.23
2019-01-19T05:10:13.672Z,14.90
2019-01-19T05:12:42.351Z,11.93
2019-01-19T05:15:16.944Z,16.03
2019-01-19T05:17:46.336Z,11.07
2019-01-19T05:20:15.646Z,14.87
2019-01-19T05:22:44.368Z,13.13
2019-01-19T05:25:13.688Z,11.70
2019-01-19T05:27:42.076Z,11.30
2019-01-19T05:30:13.426Z,8.47
2019-01-19T05:32:41.987Z,11.43
2019-01-19T05:35:10.879Z,13.60
2019-01-19T05:37:39.500Z,14.70
2019-01-19T05:40:10.919Z,15.70
2019-01-19T05:42:39.576Z,11.70
2019-01-19T05:45:10.554Z,10.80
2019-01-19T05:47:39.242Z,12.40
2019-01-19T05:50:13.371Z,9.70
2019-01-19T05:52:43.617Z,15.70
2019-01-19T05:55:12.423Z,10.33
2019-01-19T05:57:41.142Z,12.20
2019-01-19T06:00:17.739Z,15.07
2019-01-19T06:02:46.436Z,12.90
2019-01-19T06:05:15.386Z,11.73
2019-01-19T06:07:44.161Z,10.53
2019-01-19T06:10:15.032Z,10.43
2019-01-19T06:12:43.843Z,13.97
2019-01-19T06:15:16.542Z,11.70
2019-01-19T06:17:45.045Z,11.93
2019-01-19T06:20:16.251Z,12.67
2019-01-19T06:22:45.082Z,12.63
2019-01-19T06:25:15.557Z,14.33
2019-01-19T06:27:45.548Z,13.00
2019-01-19T06:30:19.837Z,12.33
2019-01-19T06:32:48.609Z,11.17
2019-01-19T06:35:18.831Z,18.00
2019-01-19T06:37:47.536Z,13.00
2019-01-19T06:40:18.229Z,10.53
2019-01-19T06:42:47.092Z,13.17
2019-01-19T06:45:20.535Z,14.17
2019-01-19T06:47:49.350Z,11.40
2019-01-19T06:50:19.553Z,14.07
2019-01-19T06:52:48.395Z,17.00
2019-01-19T06:55:22.670Z,14.60
2019-01-19T06:57:51.177Z,15.40
2019-01-19T07:00:19.643Z,15.90
2019-01-19T07:02:48.070Z,16.70
2019-01-19T07:05:16.771Z,14.73
2019-01-19T07:07:45.485Z,18.03
2019-01-19T07:10:16.713Z,22.33
2019-01-19T07:12:45.279Z,13.50
2019-01-19T07:15:14.812Z,14.00
2019-01-19T07:17:43.472Z,14.23
2019-01-19T07:20:20.777Z,14.97
2019-01-19T07:22:49.770Z,13.50
2019-01-19T07:25:18.528Z,12.50
2019-01-19T07:27:47.307Z,12.70
2019-01-19T07:30:17.263Z,16.13
2019-01-19T07:32:47.103Z,13.03
2019-01-19T07:35:16.455Z,13.37
2019-01-19T07:37:45.323Z,10.87
2019-01-19T07:40:15.877Z,10.53
2019-01-19T07:42:45.966Z,12.30
2019-01-19T07:45:15.891Z,12.83
2019-01-19T07:47:45.323Z,9.30
2019-01-19T07:50:18.697Z,16.00
2019-01-19T07:52:47.544Z,13.70
2019-01-19T07:55:19.313Z,13.53
2019-01-19T07:57:48.146Z,9.80
2019-01-19T08:00:19.856Z,11.83
2019-01-19T08:02:48.707Z,14.03
2019-01-19T08:05:17.547Z,11.40
2019-01-19T08:07:46.491Z,14.50
2019-01-19T08:10:19.523Z,13.13
2019-01-19T08:12:48.236Z,11.63
2019-01-19T08:15:29.433Z,9.10
2019-01-19T08:17:58.172Z,9.80
2019-01-19T08:20:26.600Z,11.50
2019-01-19T08:22:55.101Z,11.10
2019-01-19T08:25:23.869Z,16.33
2019-01-19T08:27:52.407Z,11.70
2019-01-19T08:30:23.159Z,12.63
2019-01-19T08:32:52.001Z,13.67
2019-01-19T08:35:20.630Z,16.40
2019-01-19T08:37:49.105Z,19.37
2019-01-19T08:40:23.663Z,11.77
2019-01-19T08:43:12.498Z,10.67
2019-01-19T08:45:41.426Z,8.57
2019-01-19T08:48:10.626Z,12.10
2019-01-19T08:50:39.898Z,10.83
2019-01-19T08:53:08.658Z,15.73
2019-01-19T08:55:37.413Z,14.90
2019-01-19T08:58:06.355Z,9.77
2019-01-19T09:00:34.805Z,8.20
2019-01-19T09:03:03.504Z,8.43
2019-01-19T09:05:31.933Z,8.70
2019-01-19T09:08:00.691Z,6.80
2019-01-19T09:10:29.507Z,6.83
2019-01-19T09:12:58.156Z,15.37
2019-01-19T09:15:27.132Z,7.80
2019-01-19T09:17:55.839Z,28.77
2019-01-19T09:20:24.335Z,11.20
2019-01-19T09:22:54.721Z,9.73
2019-01-19T09:25:24.433Z,7.13
2019-01-19T09:27:53.141Z,7.87
2019-01-19T09:30:24.403Z,9.30
2019-01-19T09:32:52.937Z,7.70
2019-01-19T09:35:21.434Z,11.13
2019-01-19T09:37:50.163Z,6.73
2019-01-19T09:40:19.216Z,7.60
2019-01-19T09:42:48.040Z,7.60
2019-01-19T09:45:20.460Z,12.60
2019-01-19T09:47:49.122Z,9.37
2019-01-19T09:50:19.209Z,7.17
2019-01-19T09:52:47.981Z,10.40
2019-01-19T09:55:16.993Z,8.63
2019-01-19T09:57:45.845Z,8.07
2019-01-19T10:00:17.332Z,9.23
2019-01-19T10:02:46.005Z,6.93
2019-01-19T10:05:17.886Z,8.83
2019-01-19T10:07:48.742Z,8.20
2019-01-19T10:10:17.347Z,12.03
2019-01-19T10:12:46.178Z,6.37
2019-01-19T10:15:17.659Z,7.70
2019-01-19T10:17:46.476Z,9.53
2019-01-19T10:20:18.138Z,8.20
2019-01-19T10:22:46.690Z,11.20
2019-01-19T10:25:16.715Z,10.20
2019-01-19T10:27:45.357Z,6.40
2019-01-19T10:30:17.090Z,11.60
2019-01-19T10:32:45.928Z,7.60
2019-01-19T10:35:15.887Z,6.90
2019-01-19T10:37:44.542Z,8.57
2019-01-19T10:40:15.928Z,9.27
2019-01-19T10:42:44.640Z,8.13
2019-01-19T10:45:16.184Z,7.00
2019-01-19T10:47:44.941Z,8.47
2019-01-19T10:50:16.145Z,7.70
2019-01-19T10:52:44.919Z,6.40
2019-01-19T10:55:16.012Z,7.97
2019-01-19T10:57:44.552Z,6.50
2019-01-19T11:00:22.275Z,10.20
2019-01-19T11:02:51.100Z,7.73
2019-01-19T11:05:19.775Z,9.53
2019-01-19T11:07:49.535Z,5.83
2019-01-19T11:10:23.763Z,7.53
2019-01-19T11:12:52.604Z,6.83
2019-01-19T11:15:21.413Z,5.90
2019-01-19T11:17:50.318Z,8.40
2019-01-19T11:20:25.643Z,7.60
2019-01-19T11:22:56.372Z,8.10
2019-01-19T11:25:25.232Z,17.07
2019-01-19T11:27:54.133Z,9.30
2019-01-19T11:30:24.838Z,9.20
2019-01-19T11:32:53.601Z,7.97
2019-01-19T11:35:22.465Z,6.20
2019-01-19T11:37:50.942Z,5.60
2019-01-19T11:40:22.369Z,7.60
2019-01-19T11:42:51.088Z,5.33
2019-01-19T11:45:21.606Z,6.07
2019-01-19T11:47:50.352Z,9.20
2019-01-19T11:50:19.167Z,9.57
2019-01-19T11:52:47.962Z,7.90
2019-01-19T11:55:21.666Z,9.10
2019-01-19T11:57:52.778Z,5.90
2019-01-19T12:00:24.511Z,8.77
2019-01-19T12:02:53.328Z,6.60
2019-01-19T12:05:22.087Z,7.13
2019-01-19T12:07:50.762Z,5.03
2019-01-19T12:10:27.529Z,4.07
2019-01-19T12:12:57.504Z,6.00
2019-01-19T12:15:26.389Z,4.77
2019-01-19T12:17:55.165Z,8.30
2019-01-19T12:20:32.463Z,7.23
2019-01-19T12:23:00.955Z,5.23
2019-01-19T12:25:29.495Z,7.57
2019-01-19T12:27:57.909Z,6.30
2019-01-19T12:30:29.261Z,7.00
2019-01-19T12:32:57.769Z,7.67
2019-01-19T12:35:26.310Z,5.60
2019-01-19T12:37:55.410Z,6.53
2019-01-19T12:40:25.992Z,10.10
2019-01-19T12:42:58.066Z,6.73
2019-01-19T12:45:35.018Z,6.43
2019-01-19T12:48:03.916Z,8.00
2019-01-19T12:50:32.685Z,5.80
2019-01-19T12:53:01.373Z,5.07
2019-01-19T12:55:30.308Z,3.90
2019-01-19T12:57:59.882Z,9.43
2019-01-19T13:00:29.339Z,6.77
2019-01-19T13:02:58.212Z,5.30
2019-01-19T13:05:29.779Z,5.40
2019-01-19T13:07:59.982Z,5.10
2019-01-19T13:10:31.750Z,4.77
2019-01-19T13:13:02.343Z,5.03
2019-01-19T13:15:49.262Z,6.03
2019-01-19T13:18:39.257Z,8.63
2019-01-19T13:21:30.216Z,7.70
2019-01-19T13:24:29.153Z,13.10
2019-01-19T13:27:15.398Z,8.17
2019-01-19T13:30:03.623Z,3.70
2019-01-19T13:32:54.561Z,10.97
2019-01-19T13:35:42.391Z,4.13
2019-01-19T13:38:25.697Z,4.87
2019-01-19T13:41:12.617Z,8.83
2019-01-19T13:43:58.638Z,36.13
2019-01-19T13:46:33.122Z,17.50
2019-01-19T13:49:07.523Z,7.47
2019-01-19T13:51:48.362Z,6.43
2019-01-19T13:54:45.900Z,5.33
2019-01-19T13:57:26.375Z,4.40
2019-01-19T14:00:24.000Z,3.90
2019-01-19T14:03:10.571Z,5.10
2019-01-19T14:06:00.759Z,4.33
2019-01-19T14:08:49.418Z,3.57
2019-01-19T14:11:32.606Z,5.10
2019-01-19T14:14:16.017Z,6.07
2019-01-19T14:16:53.734Z,3.60
2019-01-19T14:19:51.976Z,4.10
2019-01-19T14:22:43.183Z,4.00
2019-01-19T14:25:14.937Z,5.60
2019-01-19T14:27:51.894Z,13.80
2019-01-19T14:30:40.053Z,19.20
2019-01-19T14:33:23.639Z,7.97
2019-01-19T14:36:13.362Z,5.17
2019-01-19T14:39:03.542Z,7.43
2019-01-19T14:41:44.099Z,9.47
2019-01-19T14:44:35.736Z,4.07
2019-01-19T14:47:13.183Z,5.20
2019-01-19T14:50:04.583Z,6.37
2019-01-19T14:52:38.717Z,5.17
2019-01-19T14:55:13.801Z,3.87
2019-01-19T14:57:50.873Z,7.43
2019-01-19T15:00:37.129Z,4.70
2019-01-19T15:03:26.604Z,4.10
2019-01-19T15:06:04.151Z,3.57
2019-01-19T15:08:44.360Z,6.17
2019-01-19T15:11:22.328Z,6.23
2019-01-19T15:14:13.736Z,5.03
2019-01-19T15:16:48.487Z,7.53
2019-01-19T15:19:23.173Z,5.20
2019-01-19T15:22:10.472Z,5.07
2019-01-19T15:24:50.769Z,8.70
2019-01-19T15:27:38.645Z,5.30
2019-01-19T15:30:18.879Z,8.40
2019-01-19T15:32:58.878Z,5.73
2019-01-19T15:36:00.660Z,9.97
2019-01-19T15:38:41.336Z,9.20
2019-01-19T15:41:29.825Z,4.90
2019-01-19T15:44:10.201Z,4.67
2019-01-19T15:46:49.530Z,6.27
2019-01-19T15:49:27.039Z,5.40
2019-01-19T15:52:04.060Z,4.40
2019-01-19T15:54:50.657Z,6.40
2019-01-19T15:57:40.480Z,10.23
2019-01-19T16:00:20.296Z,4.23
2019-01-19T16:02:57.716Z,3.67
2019-01-19T16:05:44.701Z,4.47
2019-01-19T16:08:34.219Z,8.47
2019-01-19T16:11:26.929Z,6.60
2019-01-19T16:14:04.370Z,6.60
2019-01-19T16:16:51.193Z,5.37
2019-01-19T16:19:22.941Z,5.20
2019-01-19T16:22:14.323Z,6.07
2019-01-19T16:24:54.954Z,7.60
2019-01-19T16:27:35.498Z,5.67
2019-01-19T16:30:18.920Z,5.93
2019-01-19T16:33:13.619Z,12.20
2019-01-19T16:35:52.811Z,7.67
2019-01-19T16:38:35.880Z,5.33
2019-01-19T16:41:39.521Z,6.47
2019-01-19T16:44:29.177Z,6.70
2019-01-19T16:47:06.433Z,7.17
2019-01-19T16:49:49.896Z,5.17
2019-01-19T16:52:29.988Z,7.40
2019-01-19T16:55:17.017Z,7.40
2019-01-19T16:58:07.637Z,5.17
2019-01-19T17:00:48.106Z,5.43
2019-01-19T17:03:22.829Z,5.27
2019-01-19T17:06:09.800Z,5.67
2019-01-19T17:08:56.654Z,6.00
2019-01-19T17:11:46.559Z,7.07
2019-01-19T17:14:26.916Z,5.87
2019-01-19T17:16:58.697Z,7.67
2019-01-19T17:19:39.073Z,9.10
2019-01-19T17:22:13.473Z,5.70
2019-01-19T17:25:03.321Z,6.20
2019-01-19T17:27:49.823Z,6.73
2019-01-19T17:30:24.832Z,7.30
2019-01-19T17:32:56.607Z,6.60
2019-01-19T17:35:33.964Z,8.07
2019-01-19T17:38:05.737Z,6.10
2019-01-19T17:40:53.795Z,7.10
2019-01-19T17:43:31.245Z,6.87
2019-01-19T17:46:02.991Z,9.10
2019-01-19T17:49:03.469Z,7.07
2019-01-19T17:51:41.033Z,7.10
2019-01-19T17:54:15.495Z,10.00
2019-01-19T17:57:04.460Z,11.77
2019-01-19T18:00:05.838Z,6.57
2019-01-19T18:02:40.116Z,10.40
2019-01-19T18:05:24.145Z,10.30
2019-01-19T18:08:26.260Z,9.00
2019-01-19T18:11:30.578Z,6.90
2019-01-19T18:14:17.408Z,7.73
2019-01-19T18:17:05.441Z,10.40
2019-01-19T18:19:48.714Z,7.70
2019-01-19T18:22:23.037Z,9.43
2019-01-19T18:25:00.796Z,7.87
2019-01-19T18:27:41.384Z,7.90
2019-01-19T18:30:13.127Z,6.10
2019-01-19T18:33:06.078Z,6.63
2019-01-19T18:36:02.031Z,7.23
2019-01-19T18:38:42.033Z,12.43
2019-01-19T18:41:34.733Z,7.47
2019-01-19T18:44:18.605Z,8.13
2019-01-19T18:46:58.942Z,7.10
2019-01-19T18:49:52.103Z,10.43
2019-01-19T18:52:26.741Z,10.37
2019-01-19T18:55:04.083Z,10.27
2019-01-19T18:57:55.213Z,9.23
2019-01-19T19:00:33.116Z,11.20
2019-01-19T19:03:17.040Z,8.60
2019-01-19T19:05:51.745Z,7.67
2019-01-19T19:08:35.749Z,7.03
2019-01-19T19:11:23.991Z,7.57
2019-01-19T19:13:58.053Z,6.47
2019-01-19T19:16:53.974Z,8.63
2019-01-19T19:19:25.746Z,20.00
2019-01-19T19:22:12.513Z,11.30
2019-01-19T19:25:01.874Z,9.67
2019-01-19T19:27:48.363Z,8.00
2019-01-19T19:30:37.737Z,7.00
2019-01-19T19:33:17.824Z,13.73
2019-01-19T19:36:16.810Z,7.97
2019-01-19T19:38:54.112Z,7.80
2019-01-19T19:41:34.398Z,6.40
2019-01-19T19:44:08.567Z,8.27
2019-01-19T19:46:45.734Z,6.40
2019-01-19T19:49:26.264Z,9.50
2019-01-19T19:52:02.767Z,8.67
2019-01-19T19:54:31.711Z,8.10
2019-01-19T19:57:00.252Z,9.03
2019-01-19T19:59:28.979Z,6.33
2019-01-19T20:01:57.795Z,7.43
2019-01-19T20:04:26.642Z,7.50
2019-01-19T20:06:55.475Z,56.57
2019-01-19T20:09:26.043Z,9.77
2019-01-19T20:11:56.427Z,10.03
2019-01-19T20:14:25.105Z,8.53
2019-01-19T20:16:53.703Z,7.13
2019-01-19T20:19:22.276Z,14.20
2019-01-19T20:21:50.954Z,5.37
2019-01-19T20:24:19.657Z,7.60
2019-01-19T20:26:48.319Z,9.33
2019-01-19T20:29:17.013Z,5.57
2019-01-19T20:31:45.714Z,6.00
2019-01-19T20:34:14.123Z,6.30
2019-01-19T20:36:44.625Z,6.77
2019-01-19T20:39:13.452Z,9.63
2019-01-19T20:41:42.235Z,8.23
2019-01-19T20:44:10.511Z,6.73
2019-01-19T20:46:39.202Z,9.27
2019-01-19T20:49:07.710Z,6.67
2019-01-19T20:51:36.189Z,7.13
2019-01-19T20:54:04.945Z,8.33
2019-01-19T20:56:33.817Z,8.00
2019-01-19T20:59:02.390Z,7.83
2019-01-19T21:01:30.784Z,7.43
2019-01-19T21:03:59.460Z,6.90
2019-01-19T21:06:28.238Z,8.50
2019-01-19T21:08:56.985Z,9.93
2019-01-19T21:11:25.749Z,9.33
2019-01-19T21:13:54.232Z,5.67
2019-01-19T21:16:23.038Z,5.87
2019-01-19T21:18:52.144Z,6.40
2019-01-19T21:21:20.645Z,6.70
2019-01-19T21:23:50.835Z,5.60
2019-01-19T21:26:19.242Z,5.27
2019-01-19T21:28:48.480Z,5.43
2019-01-19T21:31:17.271Z,7.40
2019-01-19T21:33:45.774Z,79.73
2019-01-19T21:36:14.457Z,10.57
2019-01-19T21:38:43.223Z,7.80
2019-01-19T21:41:11.948Z,8.37
2019-01-19T21:43:41.114Z,8.30
2019-01-19T21:46:09.908Z,5.93
2019-01-19T21:48:38.648Z,9.23
2019-01-19T21:51:07.138Z,6.70
2019-01-19T21:53:36.349Z,6.63
2019-01-19T21:56:05.558Z,7.63
2019-01-19T21:58:34.281Z,13.07
2019-01-19T22:01:02.881Z,8.20
2019-01-19T22:03:31.566Z,8.27
2019-01-19T22:06:00.293Z,5.37
2019-01-19T22:08:30.179Z,5.50
2019-01-19T22:10:58.942Z,8.23
2019-01-19T22:13:27.643Z,7.43
2019-01-19T22:15:56.316Z,7.83
2019-01-19T22:18:25.104Z,6.67
2019-01-19T22:20:53.887Z,7.37
2019-01-19T22:23:22.553Z,17.67
2019-01-19T22:25:51.349Z,25.73
2019-01-19T22:28:19.820Z,9.87
2019-01-19T22:30:48.523Z,7.30
2019-01-19T22:33:17.658Z,9.73
2019-01-19T22:35:46.087Z,6.70
2019-01-19T22:38:14.622Z,7.40
2019-01-19T22:40:43.419Z,7.57
2019-01-19T22:43:12.327Z,7.50
2019-01-19T22:45:41.177Z,8.70
2019-01-19T22:48:09.890Z,9.63
2019-01-19T22:50:38.559Z,6.50
2019-01-19T22:53:07.328Z,6.53
2019-01-19T22:55:35.808Z,6.87
2019-01-19T22:58:04.362Z,5.97
2019-01-19T23:00:40.379Z,5.57
2019-01-19T23:03:09.159Z,8.10
2019-01-19T23:05:37.557Z,7.30
2019-01-19T23:08:05.995Z,8.07
2019-01-19T23:10:34.415Z,9.00
2019-01-19T23:13:02.827Z,7.13
2019-01-19T23:15:31.569Z,10.80
2019-01-19T23:18:00.301Z,7.90
2019-01-19T23:20:28.705Z,7.80
2019-01-19T23:22:57.532Z,5.97
2019-01-19T23:25:26.206Z,13.97
2019-01-19T23:27:54.965Z,8.60
2019-01-19T23:33:10.877Z,9.60
2019-01-19T23:35:39.556Z,7.23
2019-01-19T23:38:08.015Z,7.43
2019-01-19T23:40:36.714Z,6.43
2019-01-19T23:43:05.444Z,5.93
2019-01-19T23:45:34.235Z,7.87
2019-01-19T23:48:02.948Z,8.13
2019-01-19T23:50:31.658Z,7.60
2019-01-19T23:53:01.143Z,7.23
2019-01-19T23:55:29.927Z,7.13
2019-01-19T23:57:58.660Z,8.37
